Time;durP1;ratioP1;P1;durP2;ratioP2;P2;SDS_P1;SDS_P2;PMS_P1;PMS_P2;Temp;Humidity;BMP_temperature;BMP_pressure;BME280_temperature;BME280_humidity;BME280_pressure;Samples;Min_cycle;Max_cycle;Signal;HPM_P1;HPM_P2
2021/07/09 00:01:26;;;;;;;;;;;;;;;-148.22;100.00;58358.63;4826515;29;1280;-86
2021/07/09 00:03:52;;;;;;;;;;;;;;;-148.22;100.00;58358.63;4826262;29;951;-86
2021/07/09 00:06:21;;;;;;;;;;;;;;;-148.22;100.00;58358.63;4826174;29;1196;-85
2021/07/09 00:08:46;;;;;;;;;;;;;;;-148.22;100.00;58358.63;4828131;29;1253;-86
2021/07/09 00:11:51;;;;;;;;;;;;;;;-148.22;100.00;58358.63;4828929;29;1912;-86
2021/07/09 00:14:39;;;;;;;;;;;;;;;-148.22;100.00;58358.63;4855093;29;947;-86
2021/07/09 00:17:36;;;;;;;;;;;;;;;-148.22;100.00;58358.63;4874735;29;999;-86
2021/07/09 00:20:02;;;;;;;;;;;;;;;-148.22;100.00;58358.63;4940830;29;1310;-86
2021/07/09 00:22:46;;;;;;;;;;;;;;;-148.22;100.00;58358.63;4949318;28;1290;-86
2021/07/09 00:25:11;;;;;;;;;;;;;;;-148.22;100.00;58358.63;4978107;28;990;-86
2021/07/09 00:27:39;;;;;;;;;;;;;;;-148.22;100.00;58358.63;4977004;28;1312;-86
2021/07/09 00:30:23;;;;;;;;;;;;;;;-148.22;100.00;58358.63;4976672;28;1950;-86
2021/07/09 00:35:51;;;;;;;;;;;;;;;-148.22;100.00;58358.63;4978103;28;605;-86
2021/07/09 00:38:25;;;;;;;;;;;;;;;-148.22;100.00;58358.63;4977837;28;886;-86
2021/07/09 00:40:50;;;;;;;;;;;;;;;-148.22;100.00;58358.63;4978027;28;1013;-85
2021/07/09 00:43:16;;;;;;;;;;;;;;;-148.22;100.00;58358.63;4976878;28;1241;-84
2021/07/09 00:45:59;;;;;;;;;;;;;;;-148.22;100.00;58358.63;4976677;28;1284;-84
2021/07/09 00:48:56;;;;;;;;;;;;;;;-148.22;100.00;58358.63;4977752;28;804;-86
2021/07/09 00:51:21;;;;;;;;;;;;;;;-148.22;100.00;58358.63;4976458;28;1891;-85
2021/07/09 00:53:50;;;;;;;;;;;;;;;-148.22;100.00;58358.63;4976321;28;1301;-86
2021/07/09 00:56:16;;;;;;;;;;;;;;;-148.22;100.00;58358.63;4977495;28;1006;-86
2021/07/09 00:58:51;;;;;;;;;;;;;;;-148.22;100.00;58358.63;4976327;28;1238;-86
2021/07/09 01:01:44;;;;;;;;;;;;;;;-148.22;100.00;58358.63;4977496;28;1045;-86
2021/07/09 01:04:18;;;;;;;;;;;;;;;-148.22;100.00;58358.63;4976292;28;1149;-86
2021/07/09 01:06:43;;;;;;;;;;;;;;;-148.22;100.00;58358.63;4976914;28;1296;-86
2021/07/09 01:09:08;;;;;;;;;;;;;;;-148.22;100.00;58358.63;4979416;28;1009;-86
2021/07/09 01:12:03;;;;;;;;;;;;;;;-148.22;100.00;58358.63;4979277;28;1914;-85
2021/07/09 01:14:47;;;;;;;;;;;;;;;-148.22;100.00;58358.63;4936990;29;1082;-86
2021/07/09 01:17:47;;;;;;;;;;;;;;;-148.22;100.00;58358.63;4920933;29;1195;-86
2021/07/09 01:20:14;;;;;;;;;;;;;;;-148.22;100.00;58358.63;4936805;29;1281;-86
2021/07/09 01:25:43;;;;;;;;;;;;;;;-148.22;100.00;58358.63;4936928;29;1122;-86
2021/07/09 01:28:10;;;;;;;;;;;;;;;-148.22;100.00;58358.63;4921130;29;1367;-86
2021/07/09 01:31:14;;;;;;;;;;;;;;;-148.22;100.00;58358.63;4920586;29;1948;-86
2021/07/09 01:34:04;;;;;;;;;;;;;;;-148.22;100.00;58358.63;4936587;29;1148;-87
2021/07/09 01:36:48;;;;;;;;;;;;;;;-148.22;100.00;58358.63;4936424;29;1258;-87
2021/07/09 01:39:34;;;;;;;;;;;;;;;-148.22;100.00;58358.63;4936879;29;1415;-86
2021/07/09 01:42:11;;;;;;;;;;;;;;;-148.22;100.00;58358.63;4936858;29;1261;-86
2021/07/09 01:44:53;;;;;;;;;;;;;;;-148.22;100.00;58358.63;4936748;29;1080;-86
2021/07/09 01:47:18;;;;;;;;;;;;;;;-148.22;100.00;58358.63;4936570;29;1029;-87
2021/07/09 01:50:11;;;;;;;;;;;;;;;-148.22;100.00;58358.63;4921895;28;1317;-86
2021/07/09 01:52:49;;;;;;;;;;;;;;;-148.22;100.00;58358.63;4936545;29;1345;-86
2021/07/09 01:55:27;;;;;;;;;;;;;;;-148.22;100.00;58358.63;4920618;29;1314;-87
2021/07/09 01:57:53;;;;;;;;;;;;;;;-148.22;100.00;58358.63;4920742;29;1339;-87
2021/07/09 02:00:33;;;;;;;;;;;;;;;-148.22;100.00;58358.63;4936559;29;1236;-87
2021/07/09 02:03:28;;;;;;;;;;;;;;;-148.22;100.00;58358.63;4924159;29;1163;-86
2021/07/09 02:06:27;;;;;;;;;;;;;;;-148.22;100.00;58358.63;4940299;29;1293;-86
2021/07/09 02:08:52;;;;;;;;;;;;;;;-148.22;100.00;58358.63;4939879;29;1229;-87
2021/07/09 02:11:49;;;;;;;;;;;;;;;-148.22;100.00;58358.63;4924132;29;1918;-87
2021/07/09 02:14:23;;;;;;;;;;;;;;;-148.22;100.00;58358.63;4940075;29;1258;-86
2021/07/09 02:19:51;;;;;;;;;;;;;;;-148.22;100.00;58358.63;4940006;29;677;-86
2021/07/09 02:22:54;;;;;;;;;;;;;;;-148.22;100.00;58358.63;4940081;29;1048;-87
2021/07/09 02:25:20;;;;;;;;;;;;;;;-148.22;100.00;58358.63;4939845;29;1291;-87
2021/07/09 02:27:56;;;;;;;;;;;;;;;-148.22;100.00;58358.63;4923966;29;1441;-87
2021/07/09 02:30:26;;;;;;;;;;;;;;;-148.22;100.00;58358.63;4975483;28;1886;-87
2021/07/09 02:33:04;;;;;;;;;;;;;;;-148.22;100.00;58358.63;4982243;28;1153;-87
2021/07/09 02:35:50;;;;;;;;;;;;;;;-148.22;100.00;58358.63;4982221;28;1224;-87
2021/07/09 02:38:34;;;;;;;;;;;;;;;-148.22;100.00;58358.63;4982303;28;1274;-87
2021/07/09 02:41:02;;;;;;;;;;;;;;;-148.22;100.00;58358.63;4982319;28;1249;-87
2021/07/09 02:43:27;;;;;;;;;;;;;;;-148.22;100.00;58358.63;4982045;28;1246;-87
2021/07/09 02:46:13;;;;;;;;;;;;;;;-148.22;100.00;58358.63;4981901;28;1206;-87
2021/07/09 02:48:44;;;;;;;;;;;;;;;-148.22;100.00;58358.63;4982007;28;1203;-87
2021/07/09 02:51:36;;;;;;;;;;;;;;;-148.22;100.00;58358.63;4981990;28;1945;-87
2021/07/09 02:54:04;;;;;;;;;;;;;;;-148.22;100.00;58358.63;4981874;28;1166;-86
2021/07/09 02:56:35;;;;;;;;;;;;;;;-148.22;100.00;58358.63;4981842;28;1423;-87
2021/07/09 02:59:09;;;;;;;;;;;;;;;-148.22;100.00;58358.63;4981892;28;1323;-87
2021/07/09 03:01:59;;;;;;;;;;;;;;;-148.22;100.00;58358.63;4981781;28;1259;-87
2021/07/09 03:04:25;;;;;;;;;;;;;;;-148.22;100.00;58358.63;4999222;28;870;-87
2021/07/09 03:06:50;;;;;;;;;;;;;;;-148.22;100.00;58358.63;4981012;28;1311;-86
2021/07/09 03:09:16;;;;;;;;;;;;;;;-148.22;100.00;58358.63;4981637;28;1185;-87
2021/07/09 03:15:23;;;;;;;;;;;;;;;-148.22;100.00;58358.63;4900794;29;999;-86
2021/07/09 03:20:50;;;;;;;;;;;;;;;-148.22;100.00;58358.63;4901073;29;682;-87
2021/07/09 03:23:29;;;;;;;;;;;;;;;-148.22;100.00;58358.63;4901050;29;1061;-87
2021/07/09 03:26:00;;;;;;;;;;;;;;;-148.22;100.00;58358.63;4900698;29;1198;-87
2021/07/09 03:28:27;;;;;;;;;;;;;;;-148.22;100.00;58358.63;4900961;29;1246;-87
2021/07/09 03:30:58;;;;;;;;;;;;;;;-148.22;100.00;58358.63;4900642;29;1964;-86
2021/07/09 03:33:24;;;;;;;;;;;;;;;-148.22;100.00;58358.63;4900680;29;1314;-87
2021/07/09 03:36:14;;;;;;;;;;;;;;;-148.22;100.00;58358.63;4900684;29;1294;-86
2021/07/09 03:39:01;;;;;;;;;;;;;;;-148.22;100.00;58358.63;4900937;29;940;-85
2021/07/09 03:41:35;;;;;;;;;;;;;;;-148.22;100.00;58358.63;4900696;29;753;-87
2021/07/09 03:44:00;;;;;;;;;;;;;;;-148.22;100.00;58358.63;4900707;29;946;-86
2021/07/09 03:49:42;;;;;;;;;;;;;;;-148.22;100.00;58358.63;4900684;29;611;-86
2021/07/09 03:52:09;;;;;;;;;;;;;;;-148.22;100.00;58358.63;4956880;28;1899;-85
2021/07/09 03:54:35;;;;;;;;;;;;;;;-148.22;100.00;58358.63;4980819;28;1224;-86
2021/07/09 03:57:14;;;;;;;;;;;;;;;-148.22;100.00;58358.63;4980597;28;1310;-85
2021/07/09 03:59:50;;;;;;;;;;;;;;;-148.22;100.00;58358.63;4980960;28;1371;-86
2021/07/09 04:05:20;;;;;;;;;;;;;;;-148.22;100.00;58358.63;4997811;28;665;-87
2021/07/09 04:07:45;;;;;;;;;;;;;;;-148.22;100.00;58358.63;4996072;28;1171;-86
2021/07/09 04:13:20;;;;;;;;;;;;;;;-148.22;100.00;58358.63;4997827;28;692;-87
2021/07/09 04:15:46;;;;;;;;;;;;;;;-148.22;100.00;58358.63;4997536;28;800;-87
2021/07/09 04:18:16;;;;;;;;;;;;;;;-148.22;100.00;58358.63;4980292;28;1327;-86
2021/07/09 04:20:42;;;;;;;;;;;;;;;-148.22;100.00;58358.63;4997578;28;819;-86
2021/07/09 04:23:09;;;;;;;;;;;;;;;-148.22;100.00;58358.63;4980213;28;1169;-86
2021/07/09 04:26:03;;;;;;;;;;;;;;;-148.22;100.00;58358.63;4979942;28;1228;-87
2021/07/09 04:28:30;;;;;;;;;;;;;;;-148.22;100.00;58358.63;4937454;29;1171;-86
2021/07/09 04:30:57;;;;;;;;;;;;;;;-148.22;100.00;58358.63;4921758;29;1958;-84
2021/07/09 04:36:24;;;;;;;;;;;;;;;-148.22;100.00;58358.63;4937774;29;650;-84
2021/07/09 04:39:14;;;;;;;;;;;;;;;-148.22;100.00;58358.63;4921775;29;1180;-84
2021/07/09 04:42:15;;;;;;;;;;;;;;;-148.22;100.00;58358.63;4937480;29;1265;-84
2021/07/09 04:47:54;;;;;;;;;;;;;;;-148.22;100.00;58358.63;4937349;29;918;-84
2021/07/09 04:53:22;;;;;;;;;;;;;;;-148.22;100.00;58358.63;4937166;29;646;-83
2021/07/09 04:56:16;;;;;;;;;;;;;;;-148.22;100.00;58358.63;4921378;29;1305;-84
2021/07/09 04:58:41;;;;;;;;;;;;;;;-148.22;100.00;58358.63;4880471;29;1181;-84
2021/07/09 05:01:06;;;;;;;;;;;;;;;-148.22;100.00;58358.63;4880427;29;1259;-83
2021/07/09 05:03:33;;;;;;;;;;;;;;;-148.22;100.00;58358.63;4864968;29;1233;-84
2021/07/09 05:06:15;;;;;;;;;;;;;;;-148.22;100.00;58358.63;4918027;29;1200;-84
2021/07/09 05:08:40;;;;;;;;;;;;;;;-148.22;100.00;58358.63;4921039;29;1322;-84
2021/07/09 05:14:37;;;;;;;;;;;;;;;-148.22;100.00;58358.63;4937020;29;599;-85
2021/07/09 05:20:05;;;;;;;;;;;;;;;-148.22;100.00;58358.63;4936873;29;653;-84
2021/07/09 05:23:04;;;;;;;;;;;;;;;-148.22;100.00;58358.63;4936951;29;1032;-84
2021/07/09 05:25:30;;;;;;;;;;;;;;;-148.22;100.00;58358.63;4920963;29;1190;-84
2021/07/09 05:27:56;;;;;;;;;;;;;;;-148.22;100.00;58358.63;4920943;29;1359;-83
2021/07/09 05:30:23;;;;;;;;;;;;;;;-148.22;100.00;58358.63;4920860;29;1903;-84
2021/07/09 05:33:02;;;;;;;;;;;;;;;-148.22;100.00;58358.63;4936800;29;773;-83
2021/07/09 05:35:56;;;;;;;;;;;;;;;-148.22;100.00;58358.63;4958973;28;1176;-84
2021/07/09 05:41:36;;;;;;;;;;;;;;;-148.22;100.00;58358.63;4996540;28;614;-84
2021/07/09 05:44:32;;;;;;;;;;;;;;;-148.22;100.00;58358.63;4979091;28;1195;-84
2021/07/09 05:50:14;;;;;;;;;;;;;;;-148.22;100.00;58358.63;4936647;29;952;-83
2021/07/09 05:55:43;;;;;;;;;;;;;;;-148.22;100.00;58358.63;4936684;29;653;-83
2021/07/09 05:58:18;;;;;;;;;;;;;;;-148.22;100.00;58358.63;4936702;29;927;-83
2021/07/09 06:00:59;;;;;;;;;;;;;;;-148.22;100.00;58358.63;4920620;29;1316;-83
2021/07/09 06:03:49;;;;;;;;;;;;;;;-148.22;100.00;58358.63;4936404;29;1060;-84
2021/07/09 06:09:16;;;;;;;;;;;;;;;-148.22;100.00;58358.63;4935767;29;1062;-83
2021/07/09 06:11:43;;;;;;;;;;;;;;;-148.22;100.00;58358.63;4936312;29;1982;-83
2021/07/09 06:14:21;;;;;;;;;;;;;;;-148.22;100.00;58358.63;4917490;29;1614;-86
2021/07/09 06:20:39;;;;;;;;;;;;;;;-148.22;100.00;58358.63;4845835;29;1056;-87
2021/07/09 06:23:30;;;;;;;;;;;;;;;-148.22;100.00;58358.63;4831623;29;1292;-87
2021/07/09 06:35:06;;;;;;;;;;;;;;;-148.22;100.00;58358.63;4842953;29;965;-87
2021/07/09 06:37:47;;;;;;;;;;;;;;;-148.22;100.00;58358.63;4842517;29;1177;-87
2021/07/09 06:40:45;;;;;;;;;;;;;;;-148.22;100.00;58358.63;4842719;29;1339;-85
2021/07/09 06:43:12;;;;;;;;;;;;;;;-148.22;100.00;58358.63;4857305;29;1560;-84
2021/07/09 06:45:46;;;;;;;;;;;;;;;-148.22;100.00;58358.63;4841991;29;1585;-88
2021/07/09 06:48:12;;;;;;;;;;;;;;;-148.22;100.00;58358.63;4841117;29;1243;-86
2021/07/09 06:50:38;;;;;;;;;;;;;;;-148.22;100.00;58358.63;4851145;29;1966;-88
2021/07/09 06:53:14;;;;;;;;;;;;;;;-148.22;100.00;58358.63;4863869;29;1176;-83
2021/07/09 06:55:42;;;;;;;;;;;;;;;-148.22;100.00;58358.63;4866864;29;1576;-83
2021/07/09 06:58:09;;;;;;;;;;;;;;;-148.22;100.00;58358.63;4897100;29;1748;-82
2021/07/09 07:00:45;;;;;;;;;;;;;;;-148.22;100.00;58358.63;4897175;29;1599;-82
2021/07/09 07:03:41;;;;;;;;;;;;;;;-148.22;100.00;58358.63;4888484;29;1571;-83
2021/07/09 07:06:08;;;;;;;;;;;;;;;-148.22;100.00;58358.63;4792834;29;1269;-83
2021/07/09 07:08:33;;;;;;;;;;;;;;;-148.22;100.00;58358.63;4808411;29;1531;-85
2021/07/09 07:10:59;;;;;;;;;;;;;;;-148.22;100.00;58358.63;4806816;29;1915;-83
2021/07/09 07:13:39;;;;;;;;;;;;;;;-148.22;100.00;58358.63;4807977;29;1359;-83
2021/07/09 07:16:07;;;;;;;;;;;;;;;-148.22;100.00;58358.63;4808359;29;1583;-84
2021/07/09 07:18:33;;;;;;;;;;;;;;;-148.22;100.00;58358.63;4797164;29;1475;-84
2021/07/09 07:21:01;;;;;;;;;;;;;;;-148.22;100.00;58358.63;4858755;29;1274;-83
2021/07/09 07:23:55;;;;;;;;;;;;;;;-148.22;100.00;58358.63;4869039;29;1362;-83
2021/07/09 07:26:21;;;;;;;;;;;;;;;-148.22;100.00;58358.63;4799141;29;1704;-83
2021/07/09 07:28:55;;;;;;;;;;;;;;;-148.22;100.00;58358.63;4810750;29;1374;-84
2021/07/09 07:31:29;;;;;;;;;;;;;;;-148.22;100.00;58358.63;4807005;29;1903;-85
2021/07/09 07:34:05;;;;;;;;;;;;;;;-148.22;100.00;58358.63;4813324;29;1317;-82
2021/07/09 07:36:41;;;;;;;;;;;;;;;-148.22;100.00;58358.63;4808205;29;1059;-88
2021/07/09 07:39:34;;;;;;;;;;;;;;;-148.22;100.00;58358.63;4793482;29;1233;-83
2021/07/09 07:42:02;;;;;;;;;;;;;;;-148.22;100.00;58358.63;4806477;29;1416;-86
2021/07/09 07:44:29;;;;;;;;;;;;;;;-148.22;100.00;58358.63;4840042;29;1358;-85
2021/07/09 07:46:55;;;;;;;;;;;;;;;-148.22;100.00;58358.63;4817450;29;1569;-82
2021/07/09 07:49:35;;;;;;;;;;;;;;;-148.22;100.00;58358.63;4817454;29;1601;-85
2021/07/09 07:52:02;;;;;;;;;;;;;;;-148.22;100.00;58358.63;4836449;29;1895;-84
2021/07/09 07:54:29;;;;;;;;;;;;;;;-148.22;100.00;58358.63;4843400;29;1212;-84
2021/07/09 07:56:55;;;;;;;;;;;;;;;-148.22;100.00;58358.63;4828942;29;1286;-83
2021/07/09 07:59:22;;;;;;;;;;;;;;;-148.22;100.00;58358.63;4824330;29;1620;-85
2021/07/09 08:01:48;;;;;;;;;;;;;;;-148.22;100.00;58358.63;4826803;29;1609;-87
2021/07/09 08:04:29;;;;;;;;;;;;;;;-148.22;100.00;58358.63;4883865;29;1257;-87
2021/07/09 08:06:54;;;;;;;;;;;;;;;-148.22;100.00;58358.63;4895684;29;2032;-83
2021/07/09 08:09:19;;;;;;;;;;;;;;;-148.22;100.00;58358.63;4880252;29;1276;-83
2021/07/09 08:11:46;;;;;;;;;;;;;;;-148.22;100.00;58358.63;4908072;29;1907;-86
2021/07/09 08:14:18;;;;;;;;;;;;;;;-148.22;100.00;58358.63;4903061;29;1333;-85
2021/07/09 08:16:55;;;;;;;;;;;;;;;-148.22;100.00;58358.63;4902884;29;1202;-84
2021/07/09 08:19:27;;;;;;;;;;;;;;;-148.22;100.00;58358.63;4946241;28;1475;-85
2021/07/09 08:22:13;;;;;;;;;;;;;;;-148.22;100.00;58358.63;4970618;28;1557;-86
2021/07/09 08:24:45;;;;;;;;;;;;;;;-148.22;100.00;58358.63;4961887;28;1487;-82
2021/07/09 08:27:10;;;;;;;;;;;;;;;-148.22;100.00;58358.63;4975464;28;1365;-88
2021/07/09 08:29:52;;;;;;;;;;;;;;;-148.22;100.00;58358.63;4972007;28;1434;-87
2021/07/09 08:32:44;;;;;;;;;;;;;;;-148.22;100.00;58358.63;4967245;28;1883;-85
2021/07/09 08:35:10;;;;;;;;;;;;;;;-148.22;100.00;58358.63;4936431;29;1344;-82
2021/07/09 08:37:45;;;;;;;;;;;;;;;-148.22;100.00;58358.63;4907183;29;1231;-87
2021/07/09 08:40:12;;;;;;;;;;;;;;;-148.22;100.00;58358.63;4926779;29;1344;-85
2021/07/09 08:42:46;;;;;;;;;;;;;;;-148.22;100.00;58358.63;4919265;29;1210;-84
2021/07/09 08:45:11;;;;;;;;;;;;;;;-148.22;100.00;58358.63;4930505;29;1472;-82
2021/07/09 08:47:48;;;;;;;;;;;;;;;-148.22;100.00;58358.63;4924606;29;1346;-85
2021/07/09 08:50:16;;;;;;;;;;;;;;;-148.22;100.00;58358.63;4929954;29;1962;-87
2021/07/09 08:52:54;;;;;;;;;;;;;;;-148.22;100.00;58358.63;4912463;29;1578;-87
2021/07/09 08:55:55;;;;;;;;;;;;;;;-148.22;100.00;58358.63;4928025;29;1367;-88
2021/07/09 08:58:33;;;;;;;;;;;;;;;-148.22;100.00;58358.63;4850622;29;1326;-87
2021/07/09 09:01:12;;;;;;;;;;;;;;;-148.22;100.00;58358.63;4867346;29;1317;-81
2021/07/09 09:03:47;;;;;;;;;;;;;;;-148.22;100.00;58358.63;4869810;29;1371;-86
2021/07/09 09:06:15;;;;;;;;;;;;;;;-148.22;100.00;58358.63;4871559;29;1445;-91
2021/07/09 09:08:40;;;;;;;;;;;;;;;-148.22;100.00;58358.63;4870962;29;1307;-83
2021/07/09 09:11:05;;;;;;;;;;;;;;;-148.22;100.00;58358.63;4880713;29;1911;-85
2021/07/09 09:13:42;;;;;;;;;;;;;;;-148.22;100.00;58358.63;4884136;29;1323;-84
2021/07/09 09:16:13;;;;;;;;;;;;;;;-148.22;100.00;58358.63;4881521;29;1542;-87
2021/07/09 09:19:11;;;;;;;;;;;;;;;-148.22;100.00;58358.63;4879988;29;1590;-89
2021/07/09 09:22:02;;;;;;;;;;;;;;;-148.22;100.00;58358.63;4865043;29;1492;-86
2021/07/09 09:24:28;;;;;;;;;;;;;;;-148.22;100.00;58358.63;4881214;29;1555;-86
2021/07/09 09:27:29;;;;;;;;;;;;;;;-148.22;100.00;58358.63;4881747;29;1183;-83
2021/07/09 09:33:05;;;;;;;;;;;;;;;-148.22;100.00;58358.63;4867826;29;1219;-85
2021/07/09 09:36:00;;;;;;;;;;;;;;;-148.22;100.00;58358.63;4846786;29;1199;-87
2021/07/09 09:38:50;;;;;;;;;;;;;;;-148.22;100.00;58358.63;4809494;29;1387;-87
2021/07/09 09:41:18;;;;;;;;;;;;;;;-148.22;100.00;58358.63;4840519;29;1205;-90
2021/07/09 09:44:10;;;;;;;;;;;;;;;-148.22;100.00;58358.63;4809775;29;1256;-88
2021/07/09 09:46:49;;;;;;;;;;;;;;;-148.22;100.00;58358.63;4840851;29;1192;-88
2021/07/09 09:49:15;;;;;;;;;;;;;;;-148.22;100.00;58358.63;4809732;29;1602;-89
2021/07/09 09:51:40;;;;;;;;;;;;;;;-148.22;100.00;58358.63;4808208;29;1955;-92
2021/07/09 09:54:32;;;;;;;;;;;;;;;-148.22;100.00;58358.63;4810102;29;1403;-96
2021/07/09 10:06:05;;;;;;;;;;;;;;;-148.22;100.00;58358.63;4880159;29;664;-93
2021/07/09 10:08:30;;;;;;;;;;;;;;;-148.22;100.00;58358.63;4886791;29;1259;-94
2021/07/09 10:10:56;;;;;;;;;;;;;;;-148.22;100.00;58358.63;4898541;29;1978;-93
2021/07/09 10:16:24;;;;;;;;;;;;;;;-148.22;100.00;58358.63;4957316;29;630;-92
2021/07/09 10:21:52;;;;;;;;;;;;;;;-148.22;100.00;58358.63;4957927;28;654;-94
2021/07/09 10:24:19;;;;;;;;;;;;;;;-148.22;100.00;58358.63;4960248;29;1219;-94
2021/07/09 10:32:59;;;;;;;;;;;;;;;-148.22;100.00;58358.63;4921226;29;591;-93
2021/07/09 10:38:41;;;;;;;;;;;;;;;-148.22;100.00;58358.63;4910233;29;1016;-94
2021/07/09 10:44:12;;;;;;;;;;;;;;;-148.22;100.00;58358.63;4902748;29;650;-94
2021/07/09 10:46:52;;;;;;;;;;;;;;;-148.22;100.00;58358.63;4901894;29;1487;-94
2021/07/09 10:55:28;;;;;;;;;;;;;;;-148.22;100.00;58358.63;4902006;29;670;-95
2021/07/09 11:04:07;;;;;;;;;;;;;;;-148.22;100.00;58358.63;4915538;29;1793;-91
2021/07/09 11:09:38;;;;;;;;;;;;;;;-148.22;100.00;58358.63;4990222;28;963;-89
2021/07/09 11:12:04;;;;;;;;;;;;;;;-148.22;100.00;58358.63;4997811;28;1906;-90
2021/07/09 11:14:49;;;;;;;;;;;;;;;-148.22;100.00;58358.63;4998755;28;1010;-90
2021/07/09 11:17:45;;;;;;;;;;;;;;;-148.22;100.00;58358.63;4997727;28;1189;-90
2021/07/09 11:20:16;;;;;;;;;;;;;;;-148.22;100.00;58358.63;4981499;28;1238;-90
2021/07/09 11:22:42;;;;;;;;;;;;;;;-148.22;100.00;58358.63;4981359;28;1229;-88
2021/07/09 11:28:26;;;;;;;;;;;;;;;-148.22;100.00;58358.63;4980891;28;1141;-92
2021/07/09 11:31:30;;;;;;;;;;;;;;;-148.22;100.00;58358.63;4973997;28;1936;-89
2021/07/09 11:37:05;;;;;;;;;;;;;;;-148.22;100.00;58358.63;4979031;28;665;-89
2021/07/09 11:39:45;;;;;;;;;;;;;;;-148.22;100.00;58358.63;4979332;28;883;-91
2021/07/09 11:42:41;;;;;;;;;;;;;;;-148.22;100.00;58358.63;4964623;28;1477;-89
2021/07/09 11:45:11;;;;;;;;;;;;;;;-148.22;100.00;58358.63;4993485;28;1286;-86
2021/07/09 11:47:44;;;;;;;;;;;;;;;-148.22;100.00;58358.63;4961284;28;1225;-90
2021/07/09 11:50:13;;;;;;;;;;;;;;;-148.22;100.00;58358.63;4961538;28;1174;-92
2021/07/09 11:52:49;;;;;;;;;;;;;;;-148.22;100.00;58358.63;4961267;28;1891;-91
2021/07/09 11:55:28;;;;;;;;;;;;;;;-148.22;100.00;58358.63;4977018;28;1450;-87
2021/07/09 11:57:54;;;;;;;;;;;;;;;-148.22;100.00;58358.63;4997969;28;831;-88
2021/07/09 12:00:36;;;;;;;;;;;;;;;-148.22;100.00;58358.63;4980098;28;1245;-86
2021/07/09 12:03:10;;;;;;;;;;;;;;;-148.22;100.00;58358.63;4963004;28;1240;-87
2021/07/09 12:05:46;;;;;;;;;;;;;;;-148.22;100.00;58358.63;4974830;28;1260;-88
2021/07/09 12:08:13;;;;;;;;;;;;;;;-148.22;100.00;58358.63;4981339;28;1316;-87
2021/07/09 12:10:40;;;;;;;;;;;;;;;-148.22;100.00;58358.63;4974374;28;1915;-82
2021/07/09 12:13:25;;;;;;;;;;;;;;;-148.22;100.00;58358.63;4961180;28;1406;-83
2021/07/09 12:16:03;;;;;;;;;;;;;;;-148.22;100.00;58358.63;4970837;28;1384;-84
2021/07/09 12:18:35;;;;;;;;;;;;;;;-148.22;100.00;58358.63;4976839;28;1269;-83
2021/07/09 12:21:06;;;;;;;;;;;;;;;-148.22;100.00;58358.63;4977804;28;1048;-83
2021/07/09 12:23:39;;;;;;;;;;;;;;;-148.22;100.00;58358.63;4960606;28;1210;-84
2021/07/09 12:26:04;;;;;;;;;;;;;;;-148.22;100.00;58358.63;4974117;28;1198;-82
2021/07/09 12:28:39;;;;;;;;;;;;;;;-148.22;100.00;58358.63;4973657;28;1223;-82
2021/07/09 12:31:05;;;;;;;;;;;;;;;-148.22;100.00;58358.63;4972093;28;1890;-82
2021/07/09 12:33:36;;;;;;;;;;;;;;;-148.22;100.00;58358.63;4963408;28;1461;-82
2021/07/09 12:36:17;;;;;;;;;;;;;;;-148.22;100.00;58358.63;4957881;28;1411;-83
2021/07/09 12:38:44;;;;;;;;;;;;;;;-148.22;100.00;58358.63;4963122;28;1372;-84
2021/07/09 12:41:16;;;;;;;;;;;;;;;-148.22;100.00;58358.63;4961351;28;1285;-84
2021/07/09 12:43:48;;;;;;;;;;;;;;;-148.22;100.00;58358.63;4990774;28;1219;-83
2021/07/09 12:46:18;;;;;;;;;;;;;;;-148.22;100.00;58358.63;4960849;28;1264;-83
2021/07/09 12:48:47;;;;;;;;;;;;;;;-148.22;100.00;58358.63;4973274;28;1292;-84
2021/07/09 12:51:21;;;;;;;;;;;;;;;-148.22;100.00;58358.63;4976266;28;1890;-83
2021/07/09 12:54:17;;;;;;;;;;;;;;;-148.22;100.00;58358.63;4973728;28;1185;-84
2021/07/09 12:56:46;;;;;;;;;;;;;;;-148.22;100.00;58358.63;4956811;29;1379;-84
2021/07/09 12:59:27;;;;;;;;;;;;;;;-148.22;100.00;58358.63;4956910;29;1295;-82
2021/07/09 13:02:00;;;;;;;;;;;;;;;-148.22;100.00;58358.63;4967857;28;1391;-83
2021/07/09 13:04:27;;;;;;;;;;;;;;;-148.22;100.00;58358.63;4956627;28;1607;-83
2021/07/09 13:07:09;;;;;;;;;;;;;;;-148.22;100.00;58358.63;4964714;28;1398;-84
2021/07/09 13:09:34;;;;;;;;;;;;;;;-148.22;100.00;58358.63;4964165;28;1386;-83
2021/07/09 13:12:20;;;;;;;;;;;;;;;-148.22;100.00;58358.63;4967268;28;2231;-85
2021/07/09 13:15:02;;;;;;;;;;;;;;;-148.22;100.00;58358.63;4965575;28;1506;-85
2021/07/09 13:17:43;;;;;;;;;;;;;;;-148.22;100.00;58358.63;4962193;28;1428;-85
2021/07/09 13:20:21;;;;;;;;;;;;;;;-148.22;100.00;58358.63;4970215;28;1270;-85
2021/07/09 13:22:50;;;;;;;;;;;;;;;-148.22;100.00;58358.63;4977321;28;772;-87
2021/07/09 13:28:48;;;;;;;;;;;;;;;-148.22;100.00;58358.63;4917603;29;749;-87
2021/07/09 13:31:26;;;;;;;;;;;;;;;-148.22;100.00;58358.63;4917596;29;1903;-86
2021/07/09 13:34:00;;;;;;;;;;;;;;;-148.22;100.00;58358.63;4917645;29;1174;-86
2021/07/09 13:36:38;;;;;;;;;;;;;;;-148.22;100.00;58358.63;4917560;29;1283;-86
2021/07/09 13:42:23;;;;;;;;;;;;;;;-148.22;100.00;58358.63;4908094;29;1225;-87
2021/07/09 13:44:58;;;;;;;;;;;;;;;-148.22;100.00;58358.63;4898626;29;1265;-86
2021/07/09 13:47:42;;;;;;;;;;;;;;;-148.22;100.00;58358.63;4898660;29;1002;-85
2021/07/09 13:50:09;;;;;;;;;;;;;;;-148.22;100.00;58358.63;4898648;29;1341;-85
2021/07/09 13:52:35;;;;;;;;;;;;;;;-148.22;100.00;58358.63;4898625;29;1940;-85
2021/07/09 13:55:03;;;;;;;;;;;;;;;-148.22;100.00;58358.63;4898543;29;1159;-85
2021/07/09 13:57:34;;;;;;;;;;;;;;;-148.22;100.00;58358.63;4899662;29;1321;-85
2021/07/09 14:00:31;;;;;;;;;;;;;;;-148.22;100.00;58358.63;4902489;29;1211;-85
2021/07/09 14:02:57;;;;;;;;;;;;;;;-148.22;100.00;58358.63;4923463;29;1247;-81
2021/07/09 14:05:23;;;;;;;;;;;;;;;-148.22;100.00;58358.63;4958954;29;1482;-81
2021/07/09 14:07:49;;;;;;;;;;;;;;;-148.22;100.00;58358.63;4959253;29;1283;-81
2021/07/09 14:10:14;;;;;;;;;;;;;;;-148.22;100.00;58358.63;4975160;28;1372;-81
2021/07/09 14:12:42;;;;;;;;;;;;;;;-148.22;100.00;58358.63;4978246;28;1891;-81
2021/07/09 14:15:07;;;;;;;;;;;;;;;-148.22;100.00;58358.63;4978436;28;842;-82
2021/07/09 14:17:43;;;;;;;;;;;;;;;-148.22;100.00;58358.63;4977598;28;1383;-81
2021/07/09 14:20:11;;;;;;;;;;;;;;;-148.22;100.00;58358.63;4961450;28;1269;-82
2021/07/09 14:22:46;;;;;;;;;;;;;;;-148.22;100.00;58358.63;4962202;28;1470;-82
2021/07/09 14:25:14;;;;;;;;;;;;;;;-148.22;100.00;58358.63;4962048;28;1301;-82
2021/07/09 14:27:40;;;;;;;;;;;;;;;-148.22;100.00;58358.63;4962069;28;1341;-82
2021/07/09 14:30:16;;;;;;;;;;;;;;;-148.22;100.00;58358.63;4961651;28;1215;-81
2021/07/09 14:32:44;;;;;;;;;;;;;;;-148.22;100.00;58358.63;4958001;29;1940;-81
2021/07/09 14:35:10;;;;;;;;;;;;;;;-148.22;100.00;58358.63;4958751;29;1306;-82
2021/07/09 14:37:37;;;;;;;;;;;;;;;-148.22;100.00;58358.63;4958606;29;1070;-82
2021/07/09 14:40:02;;;;;;;;;;;;;;;-148.22;100.00;58358.63;4959305;29;1229;-81
2021/07/09 14:42:41;;;;;;;;;;;;;;;-148.22;100.00;58358.63;4959407;29;1361;-82
2021/07/09 14:45:29;;;;;;;;;;;;;;;-148.22;100.00;58358.63;4959511;29;1283;-81
2021/07/09 14:47:56;;;;;;;;;;;;;;;-148.22;100.00;58358.63;4960548;29;945;-82
2021/07/09 14:50:21;;;;;;;;;;;;;;;-148.22;100.00;58358.63;4959237;29;1343;-82
2021/07/09 14:52:50;;;;;;;;;;;;;;;-148.22;100.00;58358.63;4959168;29;1944;-82
2021/07/09 14:55:24;;;;;;;;;;;;;;;-148.22;100.00;58358.63;4959375;29;1177;-82
2021/07/09 14:57:56;;;;;;;;;;;;;;;-148.22;100.00;58358.63;4959287;29;1200;-82
2021/07/09 15:00:28;;;;;;;;;;;;;;;-148.22;100.00;58358.63;4975177;28;1320;-82
2021/07/09 15:02:56;;;;;;;;;;;;;;;-148.22;100.00;58358.63;4959030;29;1260;-82
2021/07/09 15:05:22;;;;;;;;;;;;;;;-148.22;100.00;58358.63;4960141;29;788;-81
2021/07/09 15:07:54;;;;;;;;;;;;;;;-148.22;100.00;58358.63;4975073;28;1453;-82
2021/07/09 15:10:19;;;;;;;;;;;;;;;-148.22;100.00;58358.63;4958650;29;1392;-81